createdAt,value
2024-03-30T00:00:46.482Z,2.3227
2024-03-30T00:01:48.080Z,2.2863
2024-03-30T00:02:49.556Z,2.3606
2024-03-30T00:03:51.043Z,2.4243
2024-03-30T00:04:52.626Z,2.4952
2024-03-30T00:05:54.134Z,2.0869
2024-03-30T00:06:55.652Z,2.5161
2024-03-30T00:07:57.290Z,2.9055
2024-03-30T00:08:58.711Z,2.2899
2024-03-30T00:10:00.226Z,2.3991
2024-03-30T00:11:01.762Z,2.4114
2024-03-30T00:12:03.320Z,2.6310
2024-03-30T00:13:04.826Z,2.2179
2024-03-30T00:14:06.366Z,1.7997
2024-03-30T00:15:07.960Z,2.4093
2024-03-30T00:16:09.411Z,2.4410
2024-03-30T00:17:10.971Z,2.2574
2024-03-30T00:18:12.482Z,2.2774
2024-03-30T00:19:13.993Z,2.1028
2024-03-30T00:20:15.548Z,2.0623
2024-03-30T00:21:17.068Z,2.1639
2024-03-30T00:22:18.570Z,2.3845
2024-03-30T00:23:20.107Z,2.4823
2024-03-30T00:24:21.714Z,2.3769
2024-03-30T00:25:23.160Z,2.4222
2024-03-30T00:26:24.696Z,2.2716
2024-03-30T00:27:26.244Z,2.5604
2024-03-30T00:28:27.767Z,2.3521
2024-03-30T00:29:29.361Z,2.5340
2024-03-30T00:30:30.819Z,2.3637
2024-03-30T00:31:32.364Z,2.0373
2024-03-30T00:32:33.890Z,1.9225
2024-03-30T00:33:35.411Z,2.2373
2024-03-30T00:34:36.943Z,2.1441
2024-03-30T00:35:38.467Z,2.3255
2024-03-30T00:36:40.081Z,2.5661
2024-03-30T00:37:41.524Z,2.1430
2024-03-30T00:38:43.052Z,2.3163
2024-03-30T00:39:44.588Z,2.4158
2024-03-30T00:40:46.764Z,2.4175
2024-03-30T00:41:47.688Z,2.4559
2024-03-30T00:43:00.373Z,2.2547
2024-03-30T00:43:50.726Z,1.9925
2024-03-30T00:44:52.277Z,2.1026
2024-03-30T00:45:53.754Z,2.1767
2024-03-30T00:46:55.302Z,2.5233
2024-03-30T00:47:56.862Z,2.3214
2024-03-30T00:48:58.365Z,2.3563
2024-03-30T00:49:59.894Z,2.2708
2024-03-30T00:51:01.426Z,2.1703
2024-03-30T00:52:02.933Z,2.2563
2024-03-30T00:53:04.471Z,2.4031
2024-03-30T00:54:06.001Z,2.2401
2024-03-30T00:55:07.609Z,2.1513
2024-03-30T00:56:09.079Z,2.3627
2024-03-30T00:57:10.587Z,2.2158
2024-03-30T00:58:12.129Z,2.2769
2024-03-30T00:59:13.732Z,2.2295
2024-03-30T01:00:15.182Z,2.0843
2024-03-30T01:01:16.713Z,2.1531
2024-03-30T01:02:18.242Z,2.0741
2024-03-30T01:03:19.859Z,2.1654
2024-03-30T01:04:21.317Z,2.4252
2024-03-30T01:05:22.833Z,2.2811
2024-03-30T01:06:24.439Z,2.3547
2024-03-30T01:07:25.981Z,2.0493
2024-03-30T01:08:27.439Z,2.2038
2024-03-30T01:09:28.950Z,2.2456
2024-03-30T01:10:30.531Z,2.2715
2024-03-30T01:11:32.027Z,2.2270
2024-03-30T01:12:33.575Z,2.0924
2024-03-30T01:13:35.099Z,2.3343
2024-03-30T01:14:36.614Z,2.2147
2024-03-30T01:15:38.230Z,2.2489
2024-03-30T01:16:42.233Z,2.2621
2024-03-30T01:17:41.224Z,2.1431
2024-03-30T01:18:42.732Z,2.2058
2024-03-30T01:19:44.377Z,2.3656
2024-03-30T01:20:45.804Z,2.2480
2024-03-30T01:21:47.316Z,1.9461
2024-03-30T01:22:48.834Z,2.1951
2024-03-30T01:23:50.390Z,2.3762
2024-03-30T01:24:51.928Z,2.1668
2024-03-30T01:25:53.518Z,1.8758
2024-03-30T01:26:54.976Z,2.2603
2024-03-30T01:27:56.510Z,2.3137
2024-03-30T01:28:58.051Z,2.3045
2024-03-30T01:29:59.561Z,2.1056
2024-03-30T01:31:01.125Z,2.2269
2024-03-30T01:32:02.653Z,1.9161
2024-03-30T01:33:04.161Z,2.2209
2024-03-30T01:34:05.681Z,2.2079
2024-03-30T01:35:07.213Z,2.1244
2024-03-30T01:36:08.751Z,1.8629
2024-03-30T01:37:10.364Z,2.4185
2024-03-30T01:38:11.822Z,1.9418
2024-03-30T01:39:13.317Z,2.1686
2024-03-30T01:40:14.877Z,2.3827
2024-03-30T01:41:16.396Z,2.0025
2024-03-30T01:42:17.927Z,2.3147
2024-03-30T01:43:19.438Z,2.3360
2024-03-30T01:44:21.039Z,2.0600
2024-03-30T01:45:22.525Z,2.1437
2024-03-30T01:46:24.033Z,1.9902
2024-03-30T01:47:25.594Z,1.9885
2024-03-30T01:48:27.093Z,2.1783
2024-03-30T01:49:28.623Z,1.8964
2024-03-30T01:50:30.159Z,2.2351
2024-03-30T01:51:31.698Z,1.9773
2024-03-30T01:52:33.320Z,2.3561
2024-03-30T01:53:44.037Z,2.0820
2024-03-30T01:54:36.290Z,2.3546
2024-03-30T01:55:37.855Z,2.2368
2024-03-30T01:56:39.328Z,2.1390
2024-03-30T01:57:40.874Z,1.8413
2024-03-30T01:58:42.414Z,1.9331
2024-03-30T01:59:43.943Z,2.1907
2024-03-30T02:00:45.446Z,2.1719
2024-03-30T02:01:47.091Z,2.1407
2024-03-30T02:02:48.528Z,2.2347
2024-03-30T02:03:50.027Z,1.7840
2024-03-30T02:04:51.580Z,2.2844
2024-03-30T02:05:53.096Z,2.3746
2024-03-30T02:06:54.644Z,2.1103
2024-03-30T02:07:56.223Z,2.3094
2024-03-30T02:08:57.693Z,2.2817
2024-03-30T02:09:59.220Z,2.0631
2024-03-30T02:11:00.737Z,2.0361
2024-03-30T02:12:02.274Z,2.1092
2024-03-30T02:13:03.816Z,1.9659
2024-03-30T02:14:05.333Z,1.9737
2024-03-30T02:15:06.851Z,1.9261
2024-03-30T02:16:08.447Z,2.0340
2024-03-30T02:17:09.937Z,2.0860
2024-03-30T02:18:11.457Z,1.9865
2024-03-30T02:19:12.974Z,2.1215
2024-03-30T02:20:14.502Z,2.0198
2024-03-30T02:21:16.064Z,2.0216
2024-03-30T02:22:17.622Z,1.9691
2024-03-30T02:23:19.106Z,2.0941
2024-03-30T02:24:20.608Z,1.7970
2024-03-30T02:25:22.239Z,2.0805
2024-03-30T02:26:23.667Z,2.0115
2024-03-30T02:27:25.250Z,2.2125
2024-03-30T02:28:26.728Z,2.0963
2024-03-30T02:29:28.360Z,1.8185
2024-03-30T02:30:29.802Z,2.0709
2024-03-30T02:31:31.308Z,1.9510
2024-03-30T02:32:32.856Z,1.9486
2024-03-30T02:33:34.386Z,1.8747
2024-03-30T02:34:35.904Z,2.2501
2024-03-30T02:35:37.452Z,1.9558
2024-03-30T02:36:38.976Z,1.8782
2024-03-30T02:37:40.500Z,1.6474
2024-03-30T02:38:42.134Z,1.9919
2024-03-30T02:39:43.553Z,2.1313
2024-03-30T02:40:45.094Z,1.8973
2024-03-30T02:41:46.625Z,1.9103
2024-03-30T02:42:48.136Z,1.9650
2024-03-30T02:43:49.679Z,2.0832
2024-03-30T02:44:51.205Z,2.1238
2024-03-30T02:45:52.738Z,1.5202
2024-03-30T02:46:54.286Z,1.6559
2024-03-30T02:47:55.802Z,1.9871
2024-03-30T02:48:57.326Z,1.7487
2024-03-30T02:49:58.942Z,1.9256
2024-03-30T02:51:00.390Z,2.0069
2024-03-30T02:52:01.911Z,1.7440
2024-03-30T02:53:03.531Z,1.9435
2024-03-30T02:54:04.987Z,1.8085
2024-03-30T02:55:06.499Z,1.8734
2024-03-30T02:56:08.024Z,1.8694
2024-03-30T02:57:09.553Z,2.1086
2024-03-30T02:58:11.074Z,2.0794
2024-03-30T02:59:12.737Z,1.8239
2024-03-30T03:00:14.164Z,1.9108
2024-03-30T03:01:15.691Z,1.6681
2024-03-30T03:02:17.199Z,1.7587
2024-03-30T03:03:18.724Z,1.8272
2024-03-30T03:04:20.261Z,1.9812
2024-03-30T03:05:21.792Z,1.8093
2024-03-30T03:06:23.322Z,1.6861
2024-03-30T03:07:24.841Z,1.9401
2024-03-30T03:08:26.391Z,1.9639
2024-03-30T03:09:27.909Z,2.0930
2024-03-30T03:10:29.516Z,1.9301
2024-03-30T03:11:30.969Z,2.0293
2024-03-30T03:12:32.511Z,1.7566
2024-03-30T03:13:34.032Z,1.8332
2024-03-30T03:14:35.654Z,2.0565
2024-03-30T03:15:37.185Z,2.0257
2024-03-30T03:16:38.643Z,1.8835
2024-03-30T03:17:40.174Z,2.0947
2024-03-30T03:18:41.678Z,2.0151
2024-03-30T03:19:43.219Z,1.8547
2024-03-30T03:20:44.826Z,2.2205
2024-03-30T03:21:46.269Z,2.2033
2024-03-30T03:22:47.810Z,2.0150
2024-03-30T03:23:49.324Z,1.8380
2024-03-30T03:24:50.882Z,1.9293
2024-03-30T03:25:52.460Z,1.9421
2024-03-30T03:26:53.932Z,1.6403
2024-03-30T03:27:55.466Z,1.4189
2024-03-30T03:28:57.077Z,1.8259
2024-03-30T03:29:58.515Z,1.8857
2024-03-30T03:31:00.118Z,1.8664
2024-03-30T03:32:01.672Z,1.5889
2024-03-30T03:33:03.245Z,1.8788
2024-03-30T03:34:04.690Z,1.8202
2024-03-30T03:35:06.236Z,1.6722
2024-03-30T03:36:07.728Z,1.7653
2024-03-30T03:37:09.350Z,1.9442
2024-03-30T03:38:10.802Z,1.7591
2024-03-30T03:39:12.350Z,1.7969
2024-03-30T03:40:13.862Z,1.8012
2024-03-30T03:41:15.392Z,1.8216
2024-03-30T03:42:16.916Z,1.9070
2024-03-30T03:43:18.446Z,1.6234
2024-03-30T03:44:19.976Z,1.8566
2024-03-30T03:45:21.520Z,1.8589
2024-03-30T03:46:23.021Z,1.9462
2024-03-30T03:47:24.638Z,1.9636
2024-03-30T03:48:26.112Z,1.9271
2024-03-30T03:49:27.618Z,1.7739
2024-03-30T03:50:29.221Z,1.9269
2024-03-30T03:51:30.658Z,1.8022
2024-03-30T03:52:32.213Z,1.5755
2024-03-30T03:53:33.728Z,1.5905
2024-03-30T03:54:35.347Z,1.8011
2024-03-30T03:55:36.778Z,1.8821
2024-03-30T03:56:38.334Z,1.9610
2024-03-30T03:57:39.859Z,1.7731
2024-03-30T03:58:41.386Z,1.7318
2024-03-30T03:59:42.922Z,1.8811
2024-03-30T04:00:44.501Z,1.9426
2024-03-30T04:01:45.974Z,1.7621
2024-03-30T04:02:47.542Z,1.9165
2024-03-30T04:03:49.025Z,1.9030
2024-03-30T04:04:50.543Z,1.8304
2024-03-30T04:05:52.105Z,1.5708
2024-03-30T04:06:53.635Z,2.1027
2024-03-30T04:07:55.129Z,1.9926
2024-03-30T04:08:56.798Z,1.8210
2024-03-30T04:09:58.188Z,2.1138
2024-03-30T04:10:59.716Z,1.8371
2024-03-30T04:12:01.334Z,1.9952
2024-03-30T04:13:02.776Z,1.8139
2024-03-30T04:14:04.335Z,1.9365
2024-03-30T04:15:05.852Z,1.7051
2024-03-30T04:16:07.376Z,1.8097
2024-03-30T04:17:09.001Z,1.5917
2024-03-30T04:18:10.428Z,1.6651
2024-03-30T04:19:11.980Z,1.8640
2024-03-30T04:20:13.508Z,1.7447
2024-03-30T04:21:15.044Z,1.8061
2024-03-30T04:22:16.585Z,1.7413
2024-03-30T04:23:18.114Z,1.7185
2024-03-30T04:24:19.703Z,1.6536
2024-03-30T04:25:21.170Z,1.7687
2024-03-30T04:26:22.702Z,2.0622
2024-03-30T04:27:24.242Z,1.8744
2024-03-30T04:28:25.782Z,1.7519
2024-03-30T04:29:27.282Z,1.7863
2024-03-30T04:30:28.827Z,1.8975
2024-03-30T04:31:30.450Z,1.7918
2024-03-30T04:32:31.885Z,1.6383
2024-03-30T04:33:33.406Z,1.6997
2024-03-30T04:34:34.940Z,1.6222
2024-03-30T04:35:36.484Z,1.9151
2024-03-30T04:36:37.988Z,1.6845
2024-03-30T04:37:39.525Z,1.7823
2024-03-30T04:38:41.052Z,1.7895
2024-03-30T04:39:42.640Z,1.6156
2024-03-30T04:40:44.133Z,1.7402
2024-03-30T04:41:45.642Z,1.7481
2024-03-30T04:42:47.161Z,1.4017
2024-03-30T04:43:48.692Z,1.5621
2024-03-30T04:44:50.232Z,1.7391
2024-03-30T04:45:51.834Z,1.8428
2024-03-30T04:46:53.280Z,1.3646
2024-03-30T04:47:54.817Z,1.6712
2024-03-30T04:48:56.411Z,1.6670
2024-03-30T04:49:57.886Z,1.6631
2024-03-30T04:50:59.440Z,1.7169
2024-03-30T04:52:00.945Z,1.7794
2024-03-30T04:53:02.480Z,1.6858
2024-03-30T04:54:04.011Z,1.8213
2024-03-30T04:55:05.543Z,1.6246
2024-03-30T04:56:07.134Z,1.6412
2024-03-30T04:57:08.619Z,1.6711
2024-03-30T04:58:10.137Z,1.6454
2024-03-30T04:59:11.672Z,1.6690
2024-03-30T05:00:13.184Z,1.6936
2024-03-30T05:01:14.714Z,1.7934
2024-03-30T05:02:16.251Z,1.5532
2024-03-30T05:03:17.785Z,1.6739
2024-03-30T05:04:19.327Z,1.7665
2024-03-30T05:05:20.832Z,1.6250
2024-03-30T05:06:22.376Z,1.6276
2024-03-30T05:07:23.909Z,1.5801
2024-03-30T05:08:25.435Z,1.5123
2024-03-30T05:09:26.972Z,1.7153
2024-03-30T05:10:28.569Z,1.5940
2024-03-30T05:11:30.016Z,1.8186
2024-03-30T05:12:31.531Z,1.6552
2024-03-30T05:13:33.065Z,1.6475
2024-03-30T05:14:34.622Z,1.5632
2024-03-30T05:15:36.193Z,1.6337
2024-03-30T05:16:40.435Z,1.6420
2024-03-30T05:17:39.215Z,1.7495
2024-03-30T05:18:40.729Z,1.6491
2024-03-30T05:19:42.242Z,1.4226
2024-03-30T05:20:43.845Z,1.7565
2024-03-30T05:21:45.290Z,1.6284
2024-03-30T05:22:46.845Z,1.5697
2024-03-30T05:23:48.351Z,1.7860
2024-03-30T05:24:49.904Z,1.5973
2024-03-30T05:25:51.411Z,1.7967
2024-03-30T05:26:52.948Z,1.5191
2024-03-30T05:27:54.532Z,1.6421
2024-03-30T05:28:56.033Z,2.0281
2024-03-30T05:29:57.523Z,1.6874
2024-03-30T05:30:59.070Z,1.3701
2024-03-30T05:32:00.583Z,1.9336
2024-03-30T05:33:02.152Z,1.6087
2024-03-30T05:34:03.644Z,1.8250
2024-03-30T05:35:05.174Z,1.7589
2024-03-30T05:36:06.783Z,1.5134
2024-03-30T05:37:08.240Z,1.3905
2024-03-30T05:38:09.767Z,1.7624
2024-03-30T05:39:11.372Z,1.5341
2024-03-30T05:40:12.818Z,1.6054
2024-03-30T05:41:14.365Z,1.5239
2024-03-30T05:42:15.865Z,1.5263
2024-03-30T05:43:17.417Z,1.5936
2024-03-30T05:44:18.999Z,1.9736
2024-03-30T05:45:20.479Z,1.5250
2024-03-30T05:46:21.993Z,1.7491
2024-03-30T05:47:23.547Z,1.8170
2024-03-30T05:48:25.068Z,1.6419
2024-03-30T05:49:26.691Z,1.3936
2024-03-30T05:50:28.162Z,1.5638
2024-03-30T05:51:29.651Z,1.8252
2024-03-30T05:52:31.223Z,1.6839
2024-03-30T05:53:32.780Z,1.3061
2024-03-30T05:54:34.254Z,1.5402
2024-03-30T05:55:35.774Z,1.6878
2024-03-30T05:56:37.329Z,1.4073
2024-03-30T05:57:38.841Z,1.7035
2024-03-30T05:58:40.378Z,1.7541
2024-03-30T05:59:41.919Z,1.7590
2024-03-30T06:00:43.423Z,1.4925
2024-03-30T06:01:45.013Z,1.5449
2024-03-30T06:02:46.597Z,1.5243
2024-03-30T06:03:48.032Z,1.6522
2024-03-30T06:04:49.544Z,1.7829
2024-03-30T06:05:51.087Z,1.6046
2024-03-30T06:06:52.612Z,1.6216
2024-03-30T06:07:54.157Z,1.5935
2024-03-30T06:08:55.682Z,1.7834
2024-03-30T06:09:57.218Z,1.7169
2024-03-30T06:10:58.833Z,1.5461
2024-03-30T06:12:00.292Z,1.5441
2024-03-30T06:13:01.782Z,1.6210
2024-03-30T06:14:03.319Z,1.5392
2024-03-30T06:15:04.841Z,1.5309
2024-03-30T06:16:06.374Z,1.3564
2024-03-30T06:17:07.985Z,1.6354
2024-03-30T06:18:09.449Z,1.4362
2024-03-30T06:19:10.952Z,1.4237
2024-03-30T06:20:12.484Z,1.3984
2024-03-30T06:21:14.000Z,1.5810
2024-03-30T06:22:15.537Z,1.9566
2024-03-30T06:23:17.056Z,1.5803
2024-03-30T06:24:18.680Z,1.6383
2024-03-30T06:25:20.111Z,1.3763
2024-03-30T06:26:21.680Z,1.8892
2024-03-30T06:27:23.194Z,1.5618
2024-03-30T06:28:24.690Z,1.5044
2024-03-30T06:29:27.442Z,1.6176
2024-03-30T06:30:27.886Z,1.6332
2024-03-30T06:31:29.285Z,1.7789
2024-03-30T06:32:30.808Z,1.8963
2024-03-30T06:33:32.332Z,1.8441
2024-03-30T06:34:33.861Z,1.5752
2024-03-30T06:35:35.474Z,1.4990
2024-03-30T06:36:36.930Z,1.4852
2024-03-30T06:37:38.446Z,1.6774
2024-03-30T06:38:39.987Z,1.6723
2024-03-30T06:39:41.499Z,1.7501
2024-03-30T06:40:43.052Z,1.5740
2024-03-30T06:41:44.570Z,1.5494
2024-03-30T06:42:46.109Z,1.4407
2024-03-30T06:43:51.404Z,1.8607
2024-03-30T06:44:49.218Z,1.7103
2024-03-30T06:45:50.703Z,1.6639
2024-03-30T06:46:52.196Z,1.7421
2024-03-30T06:47:53.732Z,1.5255
2024-03-30T06:48:55.283Z,1.9091
2024-03-30T06:49:56.778Z,1.9248
2024-03-30T06:50:58.343Z,1.5028
2024-03-30T06:51:59.846Z,2.0454
2024-03-30T06:53:01.374Z,1.9571
2024-03-30T06:54:02.948Z,1.6711
2024-03-30T06:55:04.404Z,1.7632
2024-03-30T06:56:06.020Z,1.9881
2024-03-30T06:57:07.490Z,1.7936
2024-03-30T06:58:08.996Z,2.1613
2024-03-30T06:59:10.520Z,1.8765
2024-03-30T07:00:12.066Z,1.7377
2024-03-30T07:01:13.682Z,1.7702
2024-03-30T07:02:15.116Z,1.8025
2024-03-30T07:03:16.642Z,1.7375
2024-03-30T07:04:18.153Z,1.7119
2024-03-30T07:05:19.688Z,1.8742
2024-03-30T07:06:21.214Z,1.9954
2024-03-30T07:07:22.742Z,1.9232
2024-03-30T07:08:24.375Z,1.8161
2024-03-30T07:09:25.807Z,1.9660
2024-03-30T07:10:27.326Z,1.9193
2024-03-30T07:11:28.852Z,1.6948
2024-03-30T07:12:32.750Z,1.7315
2024-03-30T07:13:31.895Z,2.2092
2024-03-30T07:14:33.517Z,1.7803
2024-03-30T07:15:34.975Z,1.9956
2024-03-30T07:16:36.567Z,2.0661
2024-03-30T07:17:38.038Z,2.1178
2024-03-30T07:18:39.542Z,2.0154
2024-03-30T07:19:41.095Z,2.0778
2024-03-30T07:20:42.609Z,1.7246
2024-03-30T07:21:44.105Z,1.9187
2024-03-30T07:22:45.732Z,1.9978
2024-03-30T07:23:47.180Z,1.6596
2024-03-30T07:24:48.702Z,1.8412
2024-03-30T07:25:50.240Z,1.8133
2024-03-30T07:26:51.751Z,1.8920
2024-03-30T07:27:53.268Z,1.7804
2024-03-30T07:28:54.924Z,2.2372
2024-03-30T07:29:56.351Z,1.7142
2024-03-30T07:30:57.867Z,1.6768
2024-03-30T07:31:59.395Z,1.8300
2024-03-30T07:33:01.020Z,1.8139
2024-03-30T07:34:02.527Z,1.9837
2024-03-30T07:35:04.089Z,2.0287
2024-03-30T07:36:05.622Z,1.8954
2024-03-30T07:37:07.220Z,1.9061
2024-03-30T07:38:08.629Z,1.9306
2024-03-30T07:39:10.175Z,1.9810
2024-03-30T07:40:11.713Z,2.0342
2024-03-30T07:41:13.233Z,1.9736
2024-03-30T07:42:14.772Z,1.7651
2024-03-30T07:43:16.286Z,1.8078
2024-03-30T07:44:17.829Z,1.8737
2024-03-30T07:45:19.338Z,2.1883
2024-03-30T07:46:20.943Z,1.9556
2024-03-30T07:47:22.375Z,1.8925
2024-03-30T07:48:23.918Z,1.9402
2024-03-30T07:49:25.434Z,1.9147
2024-03-30T07:50:27.015Z,1.9244
2024-03-30T07:51:28.503Z,2.0032
2024-03-30T07:52:30.036Z,1.9082
2024-03-30T07:53:31.589Z,1.7707
2024-03-30T07:54:33.166Z,2.0818
2024-03-30T07:55:34.651Z,2.1001
2024-03-30T07:56:36.159Z,1.9751
2024-03-30T07:57:37.727Z,2.1710
2024-03-30T07:58:39.203Z,2.0033
2024-03-30T07:59:40.733Z,1.9288
2024-03-30T08:00:42.289Z,1.8224
2024-03-30T08:01:43.804Z,1.9758
2024-03-30T08:02:45.349Z,2.0280
2024-03-30T08:03:46.877Z,1.7552
2024-03-30T08:04:48.400Z,1.9332
2024-03-30T08:05:50.010Z,1.8232
2024-03-30T08:06:51.476Z,1.7745
2024-03-30T08:07:53.113Z,1.9214
2024-03-30T08:08:54.533Z,1.9415
2024-03-30T08:09:56.061Z,2.0788
2024-03-30T08:10:57.599Z,2.2588
2024-03-30T08:11:59.148Z,2.0701
2024-03-30T08:13:00.680Z,2.1785
2024-03-30T08:14:02.210Z,1.8357
2024-03-30T08:15:03.735Z,2.1445
2024-03-30T08:16:05.263Z,2.1153
2024-03-30T08:17:06.802Z,2.1148
2024-03-30T08:18:08.319Z,2.1274
2024-03-30T08:19:09.837Z,1.9773
2024-03-30T08:20:11.389Z,2.1404
2024-03-30T08:21:12.913Z,2.2300
2024-03-30T08:22:14.430Z,1.9583
2024-03-30T08:23:16.057Z,1.9066
2024-03-30T08:24:17.498Z,2.3916
2024-03-30T08:25:19.033Z,2.0888
2024-03-30T08:26:20.607Z,1.8081
2024-03-30T08:27:24.131Z,1.9207
2024-03-30T08:28:23.609Z,1.8821
2024-03-30T08:29:25.152Z,2.0994
2024-03-30T08:30:26.753Z,2.1491
2024-03-30T08:31:28.211Z,2.1189
2024-03-30T08:32:29.743Z,2.2024
2024-03-30T08:33:31.276Z,2.1946
2024-03-30T08:34:32.814Z,1.7624
2024-03-30T08:35:34.452Z,2.1628
2024-03-30T08:36:35.889Z,1.8350
2024-03-30T08:37:37.412Z,2.1001
2024-03-30T08:38:38.934Z,2.0589
2024-03-30T08:39:40.539Z,2.0675
2024-03-30T08:40:41.999Z,1.8557
2024-03-30T08:41:43.559Z,2.0764
2024-03-30T08:42:45.062Z,1.9783
2024-03-30T08:43:46.631Z,2.0912
2024-03-30T08:44:48.165Z,1.9435
2024-03-30T08:45:49.644Z,1.8519
2024-03-30T08:46:51.202Z,1.8814
2024-03-30T08:47:52.705Z,1.8339
2024-03-30T08:48:54.267Z,1.8981
2024-03-30T08:49:55.853Z,1.8612
2024-03-30T08:50:57.311Z,2.0537
2024-03-30T08:51:58.850Z,2.0526
2024-03-30T08:53:00.448Z,2.3727
2024-03-30T08:54:01.928Z,2.1494
2024-03-30T08:55:03.426Z,1.8641
2024-03-30T08:56:04.961Z,1.9704
2024-03-30T08:57:06.535Z,2.1038
2024-03-30T08:58:08.007Z,2.1563
2024-03-30T08:59:09.551Z,2.0308
2024-03-30T09:00:11.150Z,1.7381
2024-03-30T09:01:12.642Z,1.9387
2024-03-30T09:02:14.137Z,2.0058
2024-03-30T09:03:15.664Z,1.8187
2024-03-30T09:04:17.263Z,1.8242
2024-03-30T09:05:18.725Z,1.7928
2024-03-30T09:06:20.250Z,1.8240
2024-03-30T09:07:21.833Z,1.9058
2024-03-30T09:08:23.326Z,1.8311
2024-03-30T09:09:24.858Z,1.8751
2024-03-30T09:10:26.385Z,2.0623
2024-03-30T09:11:27.979Z,2.1489
2024-03-30T09:12:29.434Z,1.8257
2024-03-30T09:13:30.988Z,2.3639
2024-03-30T09:14:32.565Z,2.1814
2024-03-30T09:15:34.019Z,2.0486
2024-03-30T09:16:35.542Z,1.8095
2024-03-30T09:17:37.077Z,2.3559
2024-03-30T09:18:38.614Z,2.2985
2024-03-30T09:19:40.130Z,2.2653
2024-03-30T09:20:41.665Z,1.6520
2024-03-30T09:21:43.197Z,1.6851
2024-03-30T09:22:44.737Z,1.8762
2024-03-30T09:23:46.316Z,2.2283
2024-03-30T09:24:47.816Z,2.2769
2024-03-30T09:25:49.309Z,2.1433
2024-03-30T09:26:50.847Z,2.1244
2024-03-30T09:27:52.356Z,2.1284
2024-03-30T09:28:53.894Z,2.0710
2024-03-30T09:29:55.440Z,2.1270
2024-03-30T09:30:56.950Z,1.9911
2024-03-30T09:31:58.478Z,2.1074
2024-03-30T09:33:00.087Z,1.9660
2024-03-30T09:34:01.549Z,2.0097
2024-03-30T09:35:03.143Z,1.9551
2024-03-30T09:36:04.606Z,2.0891
2024-03-30T09:37:06.140Z,2.0276
2024-03-30T09:38:07.683Z,2.3388
2024-03-30T09:39:09.232Z,2.2291
2024-03-30T09:40:10.724Z,2.0487
2024-03-30T09:41:12.248Z,1.9793
2024-03-30T09:42:13.801Z,2.1342
2024-03-30T09:43:15.427Z,2.0007
2024-03-30T09:44:16.880Z,1.7685
2024-03-30T09:45:18.390Z,1.9635
2024-03-30T09:46:19.944Z,1.9160
2024-03-30T09:47:21.433Z,2.1022
2024-03-30T09:48:22.963Z,2.1727
2024-03-30T09:49:24.569Z,2.1442
2024-03-30T09:50:26.020Z,1.7871
2024-03-30T09:51:27.544Z,1.9738
2024-03-30T09:52:29.085Z,1.8075
2024-03-30T09:53:30.624Z,2.0119
2024-03-30T09:54:32.146Z,2.1575
2024-03-30T09:55:33.737Z,2.0428
2024-03-30T09:56:35.214Z,1.8262
2024-03-30T09:57:37.375Z,2.0587
2024-03-30T09:58:38.253Z,1.8970
2024-03-30T09:59:39.884Z,2.0979
2024-03-30T10:00:41.367Z,1.7373
2024-03-30T10:01:42.830Z,1.9016
2024-03-30T10:02:44.473Z,2.2014
2024-03-30T10:03:45.995Z,2.2277
2024-03-30T10:04:47.419Z,1.8324
2024-03-30T10:05:48.961Z,1.7004
2024-03-30T10:06:50.510Z,2.0762
2024-03-30T10:07:52.047Z,1.9151
2024-03-30T10:08:53.636Z,2.2169
2024-03-30T10:09:55.091Z,2.1677
2024-03-30T10:10:56.605Z,2.0851
2024-03-30T10:11:58.128Z,2.2097
2024-03-30T10:12:59.664Z,2.1357
2024-03-30T10:14:07.355Z,1.9676
2024-03-30T10:15:02.717Z,1.8136
2024-03-30T10:16:04.379Z,2.2434
2024-03-30T10:17:05.786Z,2.1986
2024-03-30T10:18:07.324Z,2.1348
2024-03-30T10:19:08.848Z,1.6998
2024-03-30T10:20:10.370Z,1.6928
2024-03-30T10:21:11.899Z,2.0850
2024-03-30T10:22:13.425Z,1.9297
2024-03-30T10:23:14.955Z,1.8306
2024-03-30T10:24:16.549Z,1.9633
2024-03-30T10:25:18.003Z,1.8818
2024-03-30T10:26:19.537Z,2.1562
2024-03-30T10:27:21.064Z,2.0282
2024-03-30T10:28:22.619Z,2.0369
2024-03-30T10:29:24.134Z,1.9630
2024-03-30T10:30:25.649Z,1.7545
2024-03-30T10:31:27.196Z,2.0089
2024-03-30T10:32:28.865Z,1.9550
2024-03-30T10:33:30.263Z,1.8029
2024-03-30T10:34:31.781Z,1.7715
2024-03-30T10:35:33.435Z,1.9262
2024-03-30T10:36:34.838Z,1.9706
2024-03-30T10:37:36.395Z,1.9121
2024-03-30T10:38:37.896Z,1.8683
2024-03-30T10:39:39.447Z,1.8756
2024-03-30T10:40:40.982Z,1.9656
2024-03-30T10:41:42.575Z,1.8354
2024-03-30T10:42:44.047Z,1.9631
2024-03-30T10:43:45.554Z,2.0750
2024-03-30T10:44:47.118Z,1.7325
2024-03-30T10:45:48.627Z,1.8761
2024-03-30T10:46:50.177Z,1.9852
2024-03-30T10:47:51.679Z,1.9248
2024-03-30T10:48:53.213Z,1.7905
2024-03-30T10:49:54.752Z,1.8510
2024-03-30T10:50:56.284Z,2.0121
2024-03-30T10:51:57.816Z,1.8562
2024-03-30T10:52:59.347Z,2.0799
2024-03-30T10:54:00.880Z,1.9636
2024-03-30T10:55:02.480Z,1.8764
2024-03-30T10:56:03.969Z,1.8784
2024-03-30T10:57:05.460Z,1.7699
2024-03-30T10:58:06.987Z,2.1256
2024-03-30T10:59:08.532Z,1.9988
2024-03-30T11:00:10.047Z,2.1028
2024-03-30T11:01:11.577Z,2.2166
2024-03-30T11:02:13.152Z,2.0969
2024-03-30T11:03:14.694Z,1.9864
2024-03-30T11:04:16.163Z,1.7363
2024-03-30T11:05:17.716Z,2.0661
2024-03-30T11:06:19.227Z,1.8819
2024-03-30T11:07:20.773Z,1.8935
2024-03-30T11:08:22.296Z,2.0627
2024-03-30T11:09:23.805Z,1.7711
2024-03-30T11:10:25.354Z,2.0207
2024-03-30T11:11:26.896Z,2.0533
2024-03-30T11:12:28.402Z,1.9509
2024-03-30T11:13:29.909Z,2.0730
2024-03-30T11:14:31.451Z,1.9379
2024-03-30T11:15:33.048Z,1.8448
2024-03-30T11:16:34.499Z,2.0613
2024-03-30T11:17:36.024Z,2.1363
2024-03-30T11:18:37.576Z,1.9352
2024-03-30T11:19:39.077Z,1.9758
2024-03-30T11:20:40.605Z,2.0947
2024-03-30T11:21:42.159Z,1.9610
2024-03-30T11:22:43.648Z,2.0485
2024-03-30T11:23:45.265Z,2.0483
2024-03-30T11:24:46.751Z,1.8868
2024-03-30T11:25:48.241Z,1.8812
2024-03-30T11:26:49.783Z,1.7921
2024-03-30T11:27:51.319Z,1.8659
2024-03-30T11:28:52.832Z,1.9541
2024-03-30T11:29:54.358Z,2.0453
2024-03-30T11:30:55.894Z,2.2497
2024-03-30T11:31:57.498Z,2.1253
2024-03-30T11:32:58.947Z,1.9151
2024-03-30T11:34:00.476Z,2.2949
2024-03-30T11:35:03.472Z,2.1054
2024-03-30T11:36:03.589Z,2.0990
2024-03-30T11:37:05.129Z,2.3982
2024-03-30T11:38:06.639Z,1.8670
2024-03-30T11:39:08.284Z,1.9811
2024-03-30T11:40:09.711Z,2.1755
2024-03-30T11:41:11.247Z,2.1657
2024-03-30T11:42:12.778Z,2.2525
2024-03-30T11:43:14.296Z,1.9121
2024-03-30T11:44:15.816Z,1.8530
2024-03-30T11:45:17.342Z,2.0393
2024-03-30T11:46:18.969Z,1.9253
2024-03-30T11:47:20.420Z,1.8867
2024-03-30T11:48:21.948Z,1.8582
2024-03-30T11:49:23.509Z,1.9532
2024-03-30T11:50:25.005Z,2.2067
2024-03-30T11:51:26.540Z,2.3847
2024-03-30T11:52:28.038Z,2.1787
2024-03-30T11:53:29.600Z,2.1792
2024-03-30T11:54:31.120Z,2.0143
2024-03-30T11:55:32.658Z,2.0079
2024-03-30T11:56:34.186Z,2.1284
2024-03-30T11:57:35.765Z,2.2364
2024-03-30T11:58:38.872Z,2.3960
2024-03-30T11:59:38.787Z,2.0858
2024-03-30T12:00:40.302Z,1.9911
2024-03-30T12:01:41.843Z,1.8908
2024-03-30T12:02:43.353Z,2.0949
2024-03-30T12:03:44.888Z,1.8433
2024-03-30T12:04:46.430Z,2.0041
2024-03-30T12:05:47.957Z,2.1776
2024-03-30T12:06:49.472Z,2.2280
2024-03-30T12:07:51.023Z,2.2405
2024-03-30T12:08:52.560Z,1.9669
2024-03-30T12:09:54.109Z,2.1683
2024-03-30T12:10:55.643Z,2.1459
2024-03-30T12:11:57.150Z,2.0623
2024-03-30T12:12:58.694Z,2.4807
2024-03-30T12:14:00.201Z,2.3623
2024-03-30T12:15:01.764Z,2.0886
2024-03-30T12:16:03.272Z,2.2476
2024-03-30T12:17:04.805Z,2.3061
2024-03-30T12:18:06.299Z,2.1385
2024-03-30T12:19:07.847Z,2.3655
2024-03-30T12:20:09.395Z,2.3128
2024-03-30T12:21:10.991Z,2.0674
2024-03-30T12:22:13.343Z,2.1441
2024-03-30T12:23:24.589Z,2.3241
2024-03-30T12:24:17.245Z,1.9837
2024-03-30T12:25:20.221Z,2.3510
2024-03-30T12:26:21.191Z,2.5146
2024-03-30T12:27:20.115Z,2.5783
2024-03-30T12:30:14.086Z,2.7291
2024-03-30T12:31:18.195Z,2.8386
2024-03-30T12:32:18.302Z,2.4275
2024-03-30T12:33:29.214Z,2.6419
2024-03-30T12:34:21.417Z,2.5292
2024-03-30T12:35:22.919Z,3.1410
2024-03-30T12:36:26.284Z,2.7678
2024-03-30T12:37:32.672Z,3.1705
2024-03-30T12:38:31.182Z,2.6783
2024-03-30T12:39:29.762Z,3.1872
2024-03-30T12:40:33.241Z,2.9562
2024-03-30T12:41:32.244Z,2.8288
2024-03-30T12:42:35.213Z,2.4956
2024-03-30T12:43:35.121Z,2.6750
2024-03-30T13:01:40.248Z,2.6643
2024-03-30T13:01:40.248Z,2.5255
2024-03-30T13:07:45.992Z,2.6207
2024-03-30T13:07:45.992Z,3.0386
2024-03-30T13:08:49.773Z,2.9163
2024-03-30T13:09:51.316Z,2.6174